createdAt,value
2023-06-10T00:01:42.589Z,17.10
2023-06-10T00:04:09.458Z,17.20
2023-06-10T00:06:38.896Z,17.10
2023-06-10T00:09:11.763Z,17.10
2023-06-10T00:11:38.906Z,17.00
2023-06-10T00:14:05.716Z,17.00
2023-06-10T00:16:32.442Z,16.90
2023-06-10T00:19:02.316Z,16.80
2023-06-10T00:21:29.440Z,16.80
2023-06-10T00:23:56.587Z,16.80
2023-06-10T00:26:24.584Z,16.80
2023-06-10T00:28:53.254Z,16.80
2023-06-10T00:31:21.616Z,16.80
2023-06-10T00:33:48.342Z,16.70
2023-06-10T00:36:15.006Z,16.60
2023-06-10T00:38:42.033Z,16.70
2023-06-10T00:41:09.849Z,16.60
2023-06-10T00:43:36.844Z,16.70
2023-06-10T00:46:30.088Z,16.60
2023-06-10T00:48:57.304Z,16.60
2023-06-10T00:51:24.194Z,16.50
2023-06-10T00:53:51.624Z,16.50
2023-06-10T00:56:18.316Z,16.40
2023-06-10T00:58:45.599Z,16.40
2023-06-10T01:01:13.423Z,16.30
2023-06-10T01:03:40.633Z,16.20
2023-06-10T01:06:25.726Z,16.20
2023-06-10T01:09:07.416Z,16.10
2023-06-10T01:11:48.478Z,16.00
2023-06-10T01:14:17.978Z,15.90
2023-06-10T01:16:46.548Z,15.80
2023-06-10T01:19:18.657Z,15.80
2023-06-10T01:21:49.642Z,15.80
2023-06-10T01:24:20.636Z,15.60
2023-06-10T01:26:51.076Z,15.60
2023-06-10T01:29:26.818Z,15.70
2023-06-10T01:32:19.595Z,15.70
2023-06-10T01:34:47.150Z,15.70
2023-06-10T01:37:16.858Z,15.70
2023-06-10T01:39:44.163Z,15.60
2023-06-10T01:42:12.551Z,15.60
2023-06-10T01:44:40.611Z,15.70
2023-06-10T01:47:10.008Z,15.70
2023-06-10T01:49:36.745Z,15.60
2023-06-10T01:52:03.603Z,15.50
2023-06-10T01:54:30.414Z,15.30
2023-06-10T01:56:57.045Z,15.10
2023-06-10T01:59:23.729Z,14.90
2023-06-10T02:01:50.659Z,14.70
2023-06-10T02:04:17.789Z,14.50
2023-06-10T02:06:44.508Z,14.50
2023-06-10T02:09:11.404Z,14.40
2023-06-10T02:11:38.111Z,14.30
2023-06-10T02:14:04.836Z,14.20
2023-06-10T02:16:32.286Z,14.00
2023-06-10T02:18:59.751Z,13.90
2023-06-10T02:21:28.265Z,13.70
2023-06-10T02:23:54.962Z,13.60
2023-06-10T02:26:22.070Z,13.50
2023-06-10T02:28:48.850Z,13.30
2023-06-10T02:31:19.078Z,13.20
2023-06-10T02:33:45.916Z,13.10
2023-06-10T02:36:14.309Z,13.00
2023-06-10T02:38:41.476Z,12.90
2023-06-10T02:41:08.229Z,12.80
2023-06-10T02:43:36.420Z,12.70
2023-06-10T02:46:03.528Z,12.70
2023-06-10T02:48:31.273Z,12.60
2023-06-10T02:50:58.488Z,12.50
2023-06-10T02:53:33.998Z,12.50
2023-06-10T02:56:06.322Z,12.40
2023-06-10T02:58:33.417Z,12.30
2023-06-10T03:01:00.382Z,12.30
2023-06-10T03:03:31.681Z,12.30
2023-06-10T03:06:04.953Z,12.20
2023-06-10T03:08:33.038Z,12.10
2023-06-10T03:11:04.644Z,12.10
2023-06-10T03:13:33.667Z,12.00
2023-06-10T03:16:00.751Z,12.00
2023-06-10T03:18:28.945Z,11.90
2023-06-10T03:20:56.569Z,11.90
2023-06-10T03:23:25.258Z,11.80
2023-06-10T03:25:52.164Z,11.90
2023-06-10T03:28:20.629Z,11.90
2023-06-10T03:30:48.223Z,11.80
2023-06-10T03:33:16.067Z,11.80
2023-06-10T03:35:44.108Z,11.80
2023-06-10T03:38:12.610Z,11.70
2023-06-10T03:40:39.451Z,11.80
2023-06-10T03:43:07.001Z,11.80
2023-06-10T03:45:33.817Z,11.80
2023-06-10T03:48:02.223Z,11.80
2023-06-10T03:50:37.363Z,11.80
2023-06-10T03:53:04.707Z,11.80
2023-06-10T03:55:32.686Z,11.80
2023-06-10T03:58:00.690Z,11.70
2023-06-10T04:00:27.649Z,11.70
2023-06-10T04:02:54.408Z,11.70
2023-06-10T04:05:29.843Z,11.80
2023-06-10T04:07:57.961Z,11.80
2023-06-10T04:10:24.806Z,11.80
2023-06-10T04:12:51.594Z,11.80
2023-06-10T04:15:19.382Z,11.90
2023-06-10T04:17:46.716Z,11.90
2023-06-10T04:20:13.615Z,11.90
2023-06-10T04:22:45.239Z,12.00
2023-06-10T04:25:12.432Z,12.10
2023-06-10T04:27:40.734Z,12.10
2023-06-10T04:30:08.310Z,12.20
2023-06-10T04:32:37.178Z,12.30
2023-06-10T04:35:06.472Z,12.40
2023-06-10T04:37:33.389Z,12.50
2023-06-10T04:40:00.354Z,12.60
2023-06-10T04:42:28.958Z,12.80
2023-06-10T04:44:55.639Z,13.00
2023-06-10T04:47:22.427Z,13.00
2023-06-10T04:49:49.130Z,13.00
2023-06-10T04:52:18.376Z,13.10
2023-06-10T04:54:46.307Z,13.10
2023-06-10T04:57:13.127Z,13.20
2023-06-10T04:59:39.793Z,13.30
2023-06-10T05:02:06.649Z,13.50
2023-06-10T05:04:33.464Z,13.50
2023-06-10T05:07:00.178Z,13.70
2023-06-10T05:09:27.449Z,13.70
2023-06-10T05:11:56.968Z,13.90
2023-06-10T05:14:23.726Z,14.00
2023-06-10T05:16:50.471Z,14.10
2023-06-10T05:19:17.450Z,14.20
2023-06-10T05:21:44.984Z,14.30
2023-06-10T05:24:12.024Z,14.40
2023-06-10T05:26:39.146Z,14.40
2023-06-10T05:29:06.570Z,14.50
2023-06-10T05:31:34.171Z,14.50
2023-06-10T05:34:01.121Z,14.60
2023-06-10T05:36:28.543Z,14.70
2023-06-10T05:38:55.273Z,14.80
2023-06-10T05:41:23.092Z,14.90
2023-06-10T05:43:50.054Z,14.90
2023-06-10T05:46:16.903Z,15.00
2023-06-10T05:48:43.606Z,15.10
2023-06-10T05:51:11.472Z,15.20
2023-06-10T05:53:39.334Z,15.20
2023-06-10T05:56:06.061Z,15.30
2023-06-10T05:58:32.866Z,15.30
2023-06-10T06:00:59.610Z,15.40
2023-06-10T06:03:26.702Z,15.40
2023-06-10T06:05:53.412Z,15.50
2023-06-10T06:08:20.051Z,15.60
2023-06-10T06:10:48.792Z,15.70
2023-06-10T06:13:16.102Z,15.80
2023-06-10T06:15:42.817Z,15.80
2023-06-10T06:18:09.584Z,15.90
2023-06-10T06:20:36.303Z,16.00
2023-06-10T06:23:03.155Z,16.00
2023-06-10T06:25:29.838Z,16.10
2023-06-10T06:27:56.578Z,16.10
2023-06-10T06:30:23.286Z,16.20
2023-06-10T06:32:50.007Z,16.20
2023-06-10T06:35:16.728Z,16.30
2023-06-10T06:37:43.542Z,16.30
2023-06-10T06:40:24.228Z,16.30
2023-06-10T06:42:50.964Z,16.30
2023-06-10T06:45:23.805Z,16.30
2023-06-10T06:47:50.563Z,16.30
2023-06-10T06:50:17.762Z,16.30
2023-06-10T06:52:44.441Z,16.30
2023-06-10T06:55:11.373Z,16.40
2023-06-10T06:57:38.594Z,16.40
2023-06-10T07:00:06.131Z,16.50
2023-06-10T07:02:35.820Z,16.40
2023-06-10T07:05:02.936Z,16.60
2023-06-10T07:07:29.695Z,16.70
2023-06-10T07:09:56.347Z,16.80
2023-06-10T07:12:24.991Z,17.00
2023-06-10T07:14:52.173Z,17.00
2023-06-10T07:17:19.431Z,17.10
2023-06-10T07:19:46.983Z,17.20
2023-06-10T07:22:13.750Z,17.30
2023-06-10T07:24:40.594Z,17.40
2023-06-10T07:27:08.109Z,17.50
2023-06-10T07:29:36.623Z,17.60
2023-06-10T07:32:04.775Z,17.80
2023-06-10T07:34:31.564Z,17.90
2023-06-10T07:36:58.239Z,18.00
2023-06-10T07:39:24.955Z,18.00
2023-06-10T07:41:55.068Z,17.90
2023-06-10T07:44:21.812Z,18.00
2023-06-10T07:46:48.493Z,18.00
2023-06-10T07:49:15.663Z,18.20
2023-06-10T07:51:42.582Z,18.40
2023-06-10T07:54:09.485Z,18.40
2023-06-10T07:56:36.231Z,18.60
2023-06-10T07:59:02.907Z,18.50
2023-06-10T08:01:31.210Z,18.60
2023-06-10T08:03:58.110Z,18.80
2023-06-10T08:06:25.051Z,18.80
2023-06-10T08:08:51.739Z,18.70
2023-06-10T08:11:18.414Z,18.70
2023-06-10T08:13:45.378Z,18.80
2023-06-10T08:16:12.078Z,18.90
2023-06-10T08:18:38.774Z,19.10
2023-06-10T08:21:05.463Z,19.10
2023-06-10T08:23:32.162Z,19.30
2023-06-10T08:25:59.244Z,19.30
2023-06-10T08:28:25.919Z,19.40
2023-06-10T08:30:52.705Z,19.50
2023-06-10T08:33:19.396Z,19.50
2023-06-10T08:35:46.199Z,19.70
2023-06-10T08:38:13.001Z,19.70
2023-06-10T08:40:39.802Z,19.90
2023-06-10T08:43:08.738Z,20.10
2023-06-10T08:45:38.805Z,20.20
2023-06-10T08:48:09.854Z,20.30
2023-06-10T08:50:39.887Z,20.40
2023-06-10T08:53:08.392Z,20.60
2023-06-10T08:55:38.598Z,20.70
2023-06-10T08:58:05.758Z,20.80
2023-06-10T09:00:33.577Z,21.10
2023-06-10T09:03:04.562Z,21.50
2023-06-10T09:05:35.025Z,21.70
2023-06-10T09:08:02.539Z,21.90
2023-06-10T09:10:30.363Z,22.20
2023-06-10T09:12:57.756Z,22.60
2023-06-10T09:15:24.504Z,22.90
2023-06-10T09:17:52.716Z,23.30
2023-06-10T09:20:20.201Z,23.60
2023-06-10T09:22:47.152Z,24.00
2023-06-10T09:25:14.427Z,24.10
2023-06-10T09:27:54.780Z,24.30
2023-06-10T09:30:35.194Z,24.30
2023-06-10T09:33:12.130Z,24.40
2023-06-10T09:35:50.269Z,24.90
2023-06-10T09:38:23.843Z,24.80
2023-06-10T09:40:51.973Z,24.80
2023-06-10T09:43:18.824Z,24.50
2023-06-10T09:45:48.294Z,24.50
2023-06-10T09:48:15.090Z,24.60
2023-06-10T09:50:46.025Z,25.00
2023-06-10T09:53:13.314Z,25.10
2023-06-10T09:55:41.173Z,25.10
2023-06-10T09:58:07.956Z,25.00
2023-06-10T10:00:35.071Z,25.20
2023-06-10T10:03:02.617Z,25.40
2023-06-10T10:05:30.904Z,25.70
2023-06-10T10:07:57.697Z,26.00
2023-06-10T10:10:24.770Z,26.50
2023-06-10T10:12:57.830Z,26.40
2023-06-10T10:15:29.589Z,26.60
2023-06-10T10:18:05.036Z,27.00
2023-06-10T10:20:35.954Z,27.40
2023-06-10T10:23:05.322Z,27.70
2023-06-10T10:25:36.403Z,27.50
2023-06-10T10:28:11.413Z,26.80
2023-06-10T10:30:43.193Z,27.40
2023-06-10T10:33:37.281Z,27.30
2023-06-10T10:36:04.769Z,27.60
2023-06-10T10:38:32.587Z,27.80
2023-06-10T10:41:00.927Z,27.50
2023-06-10T10:43:31.996Z,27.70
2023-06-10T10:46:04.706Z,28.00
2023-06-10T10:48:39.428Z,28.20
2023-06-10T10:51:06.198Z,27.80
2023-06-10T10:53:32.850Z,27.50
2023-06-10T10:56:00.359Z,28.00
2023-06-10T10:58:27.144Z,28.00
2023-06-10T11:00:53.928Z,28.30
2023-06-10T11:03:21.103Z,27.80
2023-06-10T11:05:49.951Z,28.40
2023-06-10T11:08:32.056Z,28.40
2023-06-10T11:10:59.322Z,28.10
2023-06-10T11:13:27.551Z,29.20
2023-06-10T11:15:59.130Z,29.50
2023-06-10T11:18:30.419Z,28.80
2023-06-10T11:21:06.135Z,29.10
2023-06-10T11:23:39.978Z,29.20
2023-06-10T11:26:27.760Z,29.70
2023-06-10T11:28:54.458Z,29.00
2023-06-10T11:31:28.342Z,29.10
2023-06-10T11:34:00.451Z,28.40
2023-06-10T11:36:28.852Z,28.30
2023-06-10T11:39:00.468Z,29.10
2023-06-10T11:41:28.289Z,29.60
2023-06-10T11:43:58.113Z,29.60
2023-06-10T11:46:27.767Z,29.50
2023-06-10T11:48:56.523Z,30.00
2023-06-10T11:51:26.277Z,29.80
2023-06-10T11:53:54.371Z,30.00
2023-06-10T11:56:26.807Z,30.20
2023-06-10T11:59:11.708Z,30.30
2023-06-10T12:01:44.775Z,30.00
2023-06-10T12:04:13.813Z,29.80
2023-06-10T12:06:44.819Z,29.90
2023-06-10T12:09:27.748Z,30.10
2023-06-10T12:12:13.492Z,30.40
2023-06-10T12:14:57.413Z,30.30
2023-06-10T12:17:33.654Z,30.10
2023-06-10T12:20:02.342Z,30.00
2023-06-10T12:22:40.496Z,29.80
2023-06-10T12:25:08.590Z,30.50
2023-06-10T12:27:37.704Z,30.40
2023-06-10T12:30:06.866Z,30.80
2023-06-10T12:32:53.334Z,30.40
2023-06-10T12:35:23.045Z,30.30
2023-06-10T12:38:12.093Z,30.20
2023-06-10T12:40:43.104Z,30.60
2023-06-10T12:43:10.515Z,30.90
2023-06-10T12:45:40.497Z,31.00
2023-06-10T12:48:10.694Z,31.10
2023-06-10T12:50:39.862Z,30.90
2023-06-10T12:53:07.016Z,30.60
2023-06-10T12:55:34.578Z,31.00
2023-06-10T12:58:02.784Z,31.10
2023-06-10T13:00:31.094Z,30.70
2023-06-10T13:02:59.142Z,30.00
2023-06-10T13:05:25.897Z,30.10
2023-06-10T13:07:52.699Z,30.50
2023-06-10T13:10:21.322Z,30.80
2023-06-10T13:12:49.326Z,30.90
2023-06-10T13:15:16.899Z,30.70
2023-06-10T13:17:45.100Z,31.00
2023-06-10T13:20:12.004Z,30.60
2023-06-10T13:22:38.719Z,30.00
2023-06-10T13:25:08.092Z,30.00
2023-06-10T13:27:35.857Z,29.70
2023-06-10T13:30:02.612Z,29.40
2023-06-10T13:32:36.839Z,29.80
2023-06-10T13:35:05.259Z,29.70
2023-06-10T13:37:32.355Z,30.50
2023-06-10T13:39:59.068Z,31.10
2023-06-10T13:42:27.521Z,31.30
2023-06-10T13:44:54.303Z,31.30
2023-06-10T13:47:22.006Z,31.50
2023-06-10T13:49:48.773Z,31.70
2023-06-10T13:52:15.484Z,32.00
2023-06-10T13:54:42.132Z,31.20
2023-06-10T13:57:11.034Z,31.20
2023-06-10T13:59:37.840Z,31.20
2023-06-10T14:02:04.967Z,31.10
2023-06-10T14:04:31.710Z,31.10
2023-06-10T14:06:58.609Z,30.70
2023-06-10T14:09:25.274Z,30.80
2023-06-10T14:11:51.933Z,31.00
2023-06-10T14:14:19.310Z,31.60
2023-06-10T14:16:46.007Z,31.60
2023-06-10T14:19:12.664Z,31.90
2023-06-10T14:21:39.343Z,32.10
2023-06-10T14:24:06.286Z,32.60
2023-06-10T14:26:33.910Z,32.70
2023-06-10T14:29:00.609Z,32.80
2023-06-10T14:31:27.427Z,32.90
2023-06-10T14:33:54.179Z,33.30
2023-06-10T14:36:20.928Z,33.10
2023-06-10T14:38:47.633Z,32.70
2023-06-10T14:41:14.526Z,32.50
2023-06-10T14:43:41.376Z,32.70
2023-06-10T14:46:08.094Z,33.00
2023-06-10T14:48:35.187Z,32.60
2023-06-10T14:51:01.817Z,33.00
2023-06-10T14:53:28.461Z,33.10
2023-06-10T14:55:55.179Z,32.40
2023-06-10T14:58:21.858Z,32.80
2023-06-10T15:00:48.568Z,33.00
2023-06-10T15:03:15.245Z,33.60
2023-06-10T15:05:41.922Z,33.00
2023-06-10T15:08:08.806Z,33.40
2023-06-10T15:10:35.479Z,33.50
2023-06-10T15:13:02.156Z,33.70
2023-06-10T15:15:28.809Z,33.60
2023-06-10T15:17:56.622Z,33.70
2023-06-10T15:20:23.512Z,33.70
2023-06-10T15:22:50.212Z,33.10
2023-06-10T15:25:30.045Z,33.30
2023-06-10T15:27:57.730Z,32.70
2023-06-10T15:30:24.380Z,32.70
2023-06-10T15:32:51.081Z,32.20
2023-06-10T15:35:18.699Z,32.00
2023-06-10T15:37:45.380Z,32.00
2023-06-10T15:40:12.387Z,32.20
2023-06-10T15:42:39.388Z,32.90
2023-06-10T15:45:06.816Z,33.00
2023-06-10T15:47:33.659Z,33.00
2023-06-10T15:50:00.555Z,33.00
2023-06-10T15:52:27.205Z,33.00
2023-06-10T15:54:53.854Z,32.40
2023-06-10T15:57:21.959Z,32.20
2023-06-10T15:59:49.601Z,32.30
2023-06-10T16:02:16.288Z,32.50
2023-06-10T16:04:43.003Z,32.00
2023-06-10T16:07:09.737Z,31.60
2023-06-10T16:09:36.511Z,32.30
2023-06-10T16:12:03.802Z,32.90
2023-06-10T16:14:30.601Z,33.00
2023-06-10T16:17:00.252Z,32.60
2023-06-10T16:19:27.043Z,32.70
2023-06-10T16:21:53.857Z,32.60
2023-06-10T16:24:20.655Z,33.10
2023-06-10T16:26:49.468Z,33.30
2023-06-10T16:29:16.869Z,33.50
2023-06-10T16:31:43.674Z,34.20
2023-06-10T16:34:10.850Z,34.70
2023-06-10T16:36:37.622Z,34.90
2023-06-10T16:39:04.419Z,33.70
2023-06-10T16:41:31.151Z,33.30
2023-06-10T16:43:58.672Z,33.80
2023-06-10T16:46:27.093Z,32.80
2023-06-10T16:48:53.754Z,32.80
2023-06-10T16:51:20.484Z,32.60
2023-06-10T16:53:47.640Z,32.50
2023-06-10T16:56:14.387Z,31.60
2023-06-10T16:58:41.022Z,31.30
2023-06-10T17:01:09.350Z,31.50
2023-06-10T17:03:36.289Z,31.60
2023-06-10T17:06:03.085Z,31.90
2023-06-10T17:08:29.998Z,32.40
2023-06-10T17:10:56.726Z,32.70
2023-06-10T17:13:23.418Z,33.20
2023-06-10T17:15:50.328Z,32.50
2023-06-10T17:18:17.121Z,32.40
2023-06-10T17:20:43.975Z,33.00
2023-06-10T17:23:11.331Z,33.20
2023-06-10T17:25:38.083Z,33.10
2023-06-10T17:28:04.967Z,34.10
2023-06-10T17:30:31.657Z,34.70
2023-06-10T17:32:58.345Z,33.80
2023-06-10T17:35:25.419Z,33.70
2023-06-10T17:37:52.126Z,33.10
2023-06-10T17:40:18.838Z,32.80
2023-06-10T17:42:45.523Z,33.20
2023-06-10T17:45:12.510Z,33.20
2023-06-10T17:47:39.416Z,33.50
2023-06-10T17:50:06.571Z,32.50
2023-06-10T17:52:33.274Z,31.80
2023-06-10T17:55:00.820Z,31.90
2023-06-10T17:57:29.063Z,31.90
2023-06-10T17:59:56.165Z,31.30
2023-06-10T18:02:23.015Z,31.20
2023-06-10T18:04:49.781Z,31.40
2023-06-10T18:07:16.504Z,31.20
2023-06-10T18:09:43.314Z,31.20
2023-06-10T18:12:11.156Z,30.90
2023-06-10T18:14:37.899Z,30.60
2023-06-10T18:17:04.887Z,30.60
2023-06-10T18:19:31.536Z,30.10
2023-06-10T18:21:58.325Z,30.00
2023-06-10T18:24:25.317Z,29.90
2023-06-10T18:26:52.124Z,29.50
2023-06-10T18:29:18.839Z,29.80
2023-06-10T18:31:45.756Z,29.80
2023-06-10T18:34:12.490Z,30.00
2023-06-10T18:36:39.222Z,29.30
2023-06-10T18:39:05.945Z,28.80
2023-06-10T18:41:32.600Z,28.40
2023-06-10T18:44:02.033Z,28.30
2023-06-10T18:46:28.842Z,27.90
2023-06-10T18:48:55.748Z,27.70
2023-06-10T18:51:23.517Z,27.40
2023-06-10T18:53:50.378Z,26.90
2023-06-10T18:56:17.093Z,26.20
2023-06-10T18:58:49.641Z,25.80
2023-06-10T19:01:16.967Z,25.50
2023-06-10T19:03:43.697Z,25.00
2023-06-10T19:06:10.399Z,24.80
2023-06-10T19:08:37.123Z,24.90
2023-06-10T19:11:03.868Z,24.70
2023-06-10T19:13:31.104Z,24.60
2023-06-10T19:15:57.906Z,24.50
2023-06-10T19:18:24.847Z,24.30
2023-06-10T19:20:52.055Z,24.00
2023-06-10T19:23:18.817Z,23.90
2023-06-10T19:25:45.527Z,23.70
2023-06-10T19:28:12.310Z,23.50
2023-06-10T19:30:39.005Z,23.40
2023-06-10T19:33:06.898Z,23.30
2023-06-10T19:35:34.917Z,23.20
2023-06-10T19:38:01.867Z,23.10
2023-06-10T19:40:28.558Z,22.90
2023-06-10T19:42:55.379Z,22.80
2023-06-10T19:45:22.146Z,22.60
2023-06-10T19:47:49.000Z,22.60
2023-06-10T19:50:15.836Z,22.40
2023-06-10T19:52:42.963Z,22.30
2023-06-10T19:55:10.313Z,22.20
2023-06-10T19:57:37.406Z,22.10
2023-06-10T20:00:05.076Z,21.80
2023-06-10T20:02:39.659Z,21.60
2023-06-10T20:05:06.668Z,21.40
2023-06-10T20:07:33.327Z,21.40
2023-06-10T20:10:01.193Z,21.30
2023-06-10T20:12:27.849Z,21.30
2023-06-10T20:14:54.531Z,21.20
2023-06-10T20:17:21.555Z,21.10
2023-06-10T20:19:53.201Z,21.00
2023-06-10T20:22:22.989Z,21.00
2023-06-10T20:24:51.940Z,21.10
2023-06-10T20:27:18.747Z,21.10
2023-06-10T20:29:45.569Z,21.00
2023-06-10T20:32:12.381Z,20.90
2023-06-10T20:34:39.148Z,20.90
2023-06-10T20:37:05.830Z,20.60
2023-06-10T20:39:32.600Z,20.50
2023-06-10T20:41:59.259Z,20.50
2023-06-10T20:44:26.013Z,20.40
2023-06-10T20:46:52.707Z,20.30
2023-06-10T20:49:19.444Z,20.20
2023-06-10T20:51:46.101Z,20.30
2023-06-10T20:54:12.814Z,20.30
2023-06-10T20:56:39.473Z,20.10
2023-06-10T20:59:06.343Z,20.00
2023-06-10T21:01:33.084Z,19.90
2023-06-10T21:03:59.865Z,19.80
2023-06-10T21:06:27.348Z,19.70
2023-06-10T21:08:54.033Z,19.70
2023-06-10T21:11:21.398Z,19.70
2023-06-10T21:13:48.094Z,19.60
2023-06-10T21:16:14.888Z,19.50
2023-06-10T21:18:41.618Z,19.50
2023-06-10T21:21:08.377Z,19.40
2023-06-10T21:23:35.098Z,19.30
2023-06-10T21:26:02.247Z,19.00
2023-06-10T21:28:28.907Z,18.80
2023-06-10T21:30:55.740Z,18.50
2023-06-10T21:33:23.796Z,18.30
2023-06-10T21:35:51.216Z,18.10
2023-06-10T21:38:17.942Z,17.90
2023-06-10T21:40:44.596Z,17.80
2023-06-10T21:43:11.273Z,17.70
2023-06-10T21:45:37.921Z,17.60
2023-06-10T21:48:04.722Z,17.40
2023-06-10T21:50:32.017Z,17.30
2023-06-10T21:53:01.110Z,17.30
2023-06-10T21:55:28.348Z,17.30
2023-06-10T21:57:55.051Z,17.30
2023-06-10T22:00:21.837Z,17.30
2023-06-10T22:02:48.651Z,17.30
2023-06-10T22:05:15.756Z,17.30
2023-06-10T22:07:42.523Z,17.20
2023-06-10T22:10:09.490Z,17.10
2023-06-10T22:12:36.222Z,17.00
2023-06-10T22:15:04.503Z,17.10
2023-06-10T22:17:31.440Z,17.10
2023-06-10T22:19:58.239Z,17.10
2023-06-10T22:22:25.971Z,17.10
2023-06-10T22:24:56.664Z,17.10
2023-06-10T22:27:23.513Z,17.00
2023-06-10T22:29:50.283Z,17.00
2023-06-10T22:32:16.988Z,17.00
2023-06-10T22:34:43.637Z,17.00
2023-06-10T22:37:10.480Z,17.10
2023-06-10T22:39:37.159Z,17.20
2023-06-10T22:42:05.719Z,17.50
2023-06-10T22:44:32.458Z,17.50
2023-06-10T22:46:59.132Z,17.50
2023-06-10T22:49:26.066Z,17.50
2023-06-10T22:51:52.888Z,17.50
2023-06-10T22:54:19.587Z,17.50
2023-06-10T22:56:46.306Z,17.50
2023-06-10T22:59:12.995Z,17.50
2023-06-10T23:01:39.748Z,17.60
2023-06-10T23:04:06.680Z,17.70
2023-06-10T23:06:33.378Z,17.70
2023-06-10T23:09:00.025Z,17.70
2023-06-10T23:11:26.721Z,17.90
2023-06-10T23:13:53.612Z,17.90
2023-06-10T23:16:20.348Z,18.00
2023-06-10T23:18:47.565Z,18.00
2023-06-10T23:21:15.717Z,18.10
2023-06-10T23:23:42.453Z,18.10
2023-06-10T23:26:09.217Z,18.20
2023-06-10T23:28:35.854Z,18.20
2023-06-10T23:31:02.796Z,18.20
2023-06-10T23:33:29.640Z,18.30
2023-06-10T23:35:56.485Z,18.30
2023-06-10T23:38:23.301Z,18.10
2023-06-10T23:40:50.052Z,18.00
2023-06-10T23:43:16.939Z,17.70
2023-06-10T23:45:43.739Z,17.50
2023-06-10T23:48:11.030Z,17.50
2023-06-10T23:50:39.101Z,17.50
2023-06-10T23:53:09.101Z,17.50
2023-06-10T23:55:36.154Z,17.60
2023-06-10T23:58:03.580Z,17.60
